Time;durP1;ratioP1;P1;durP2;ratioP2;P2;SDS_P1;SDS_P2;PMS_P1;PMS_P2;Temp;Humidity;BMP_temperature;BMP_pressure;BME280_temperature;BME280_humidity;BME280_pressure;Samples;Min_cycle;Max_cycle;Signal;HPM_P1;HPM_P2
2022/07/12 00:01:47;;;;;;;0.40;0.30;;;18.30;99.90;;;;;;5012264;28;20377;-70
2022/07/12 00:04:13;;;;;;;0.40;0.30;;;18.20;99.90;;;;;;5011398;28;20456;-70
2022/07/12 00:06:39;;;;;;;0.50;0.50;;;18.20;99.90;;;;;;5011988;28;20873;-71
2022/07/12 00:09:05;;;;;;;0.40;0.20;;;18.20;99.90;;;;;;5011809;28;20404;-71
2022/07/12 00:11:30;;;;;;;0.40;0.30;;;18.20;99.90;;;;;;5011956;28;20388;-70
2022/07/12 00:13:56;;;;;;;0.40;0.30;;;18.10;99.90;;;;;;5011439;28;20412;-71
2022/07/12 00:16:22;;;;;;;0.40;0.20;;;18.10;99.90;;;;;;5011984;28;20456;-71
2022/07/12 00:18:48;;;;;;;0.40;0.20;;;18.00;99.90;;;;;;5011762;28;20389;-71
2022/07/12 00:21:14;;;;;;;0.40;0.30;;;18.00;99.90;;;;;;5011234;28;20373;-71
2022/07/12 00:23:40;;;;;;;0.40;0.20;;;18.00;99.90;;;;;;5012118;28;20400;-71
2022/07/12 00:26:06;;;;;;;0.40;0.30;;;17.90;99.90;;;;;;5011115;28;20421;-71
2022/07/12 00:28:32;;;;;;;0.40;0.20;;;18.00;99.90;;;;;;5012027;28;20820;-71
2022/07/12 00:30:58;;;;;;;0.40;0.30;;;17.90;99.90;;;;;;5011292;28;20491;-71
2022/07/12 00:33:24;;;;;;;0.40;0.30;;;17.90;99.90;;;;;;5011754;28;20397;-70
2022/07/12 00:35:49;;;;;;;0.40;0.30;;;17.80;99.90;;;;;;5011730;28;20396;-71
2022/07/12 00:38:15;;;;;;;0.40;0.25;;;17.90;99.90;;;;;;5011028;28;20430;-71
2022/07/12 00:40:41;;;;;;;0.50;0.30;;;17.80;99.90;;;;;;5011409;28;20415;-71
2022/07/12 00:43:07;;;;;;;0.40;0.20;;;17.80;99.90;;;;;;5011209;28;20459;-71
2022/07/12 00:45:33;;;;;;;0.40;0.20;;;17.70;99.90;;;;;;5011880;28;20392;-71
2022/07/12 00:47:59;;;;;;;0.40;0.20;;;17.70;99.90;;;;;;5010837;28;20754;-71
2022/07/12 00:50:25;;;;;;;0.40;0.20;;;17.80;99.90;;;;;;5011264;28;20476;-71
2022/07/12 00:52:53;;;;;;;0.40;0.20;;;17.70;99.90;;;;;;5021987;28;20465;-71
2022/07/12 00:55:20;;;;;;;0.40;0.30;;;17.70;99.90;;;;;;5030328;28;20455;-71
2022/07/12 00:57:47;;;;;;;0.40;0.20;;;17.70;99.90;;;;;;5030739;28;20540;-71
2022/07/12 01:00:16;;;;;;;0.40;0.20;;;17.70;99.90;;;;;;5030257;28;20419;-71
2022/07/12 01:02:44;;;;;;;0.40;0.20;;;17.70;99.90;;;;;;5030881;28;20741;-71
2022/07/12 01:05:10;;;;;;;0.40;0.20;;;17.60;99.90;;;;;;5030534;28;20391;-71
2022/07/12 01:07:36;;;;;;;0.40;0.20;;;17.60;99.90;;;;;;5030718;28;20401;-71
2022/07/12 01:10:03;;;;;;;0.40;0.20;;;17.70;99.90;;;;;;5030337;28;20410;-71
2022/07/12 01:12:30;;;;;;;0.40;0.30;;;17.60;99.90;;;;;;5030802;28;20446;-70
2022/07/12 01:14:56;;;;;;;0.40;0.30;;;17.80;99.90;;;;;;5030864;28;20461;-71
2022/07/12 01:17:24;;;;;;;0.50;0.45;;;17.60;99.90;;;;;;5030121;28;20387;-71
2022/07/12 01:19:52;;;;;;;0.40;0.20;;;17.70;99.90;;;;;;5030549;28;20387;-70
2022/07/12 01:22:18;;;;;;;0.40;0.30;;;17.70;99.90;;;;;;5030309;28;20467;-71
2022/07/12 01:24:45;;;;;;;0.40;0.28;;;17.70;99.90;;;;;;5030815;28;20398;-70
2022/07/12 01:27:12;;;;;;;0.40;0.30;;;17.60;99.90;;;;;;5029723;28;20402;-71
2022/07/12 01:29:38;;;;;;;0.40;0.30;;;17.60;99.90;;;;;;5029876;28;20708;-71
2022/07/12 01:35:01;;;;;;;0.60;0.60;;;17.50;99.90;;;;;;5030878;28;20390;-70
2022/07/12 01:37:33;;;;;;;0.40;0.30;;;17.50;99.90;;;;;;5030500;28;20771;-71
2022/07/12 01:39:59;;;;;;;0.50;0.50;;;17.50;99.90;;;;;;5030223;28;20398;-71
2022/07/12 01:42:27;;;;;;;0.40;0.30;;;17.40;99.90;;;;;;5030226;28;20747;-71
2022/07/12 01:44:53;;;;;;;0.40;0.20;;;17.50;99.90;;;;;;5013231;28;20470;-70
2022/07/12 01:47:24;;;;;;;0.40;0.20;;;17.40;99.90;;;;;;5029726;28;20388;-71
2022/07/12 01:49:50;;;;;;;0.40;0.40;;;17.40;99.90;;;;;;5030595;28;20414;-70
2022/07/12 01:52:17;;;;;;;0.40;0.20;;;17.40;99.90;;;;;;5023842;28;20473;-71
2022/07/12 01:54:43;;;;;;;0.40;0.20;;;17.40;99.90;;;;;;5010654;28;20873;-71
2022/07/12 01:57:09;;;;;;;0.40;0.20;;;17.30;99.90;;;;;;5009762;28;20444;-71
2022/07/12 01:59:35;;;;;;;0.90;0.90;;;17.30;99.90;;;;;;5010937;28;20726;-71
2022/07/12 02:02:02;;;;;;;0.40;0.20;;;17.20;99.90;;;;;;5010161;28;20396;-71
2022/07/12 02:04:27;;;;;;;0.40;0.30;;;17.20;99.90;;;;;;5010754;28;20395;-70
2022/07/12 02:06:54;;;;;;;0.40;0.30;;;17.10;99.90;;;;;;5010599;28;20448;-70
2022/07/12 02:09:19;;;;;;;0.40;0.20;;;17.10;99.90;;;;;;5009667;28;20856;-70
2022/07/12 02:11:47;;;;;;;0.40;0.30;;;17.20;99.90;;;;;;4993065;28;20467;-71
2022/07/12 02:14:13;;;;;;;0.40;0.30;;;17.30;99.90;;;;;;5009863;28;20424;-71
2022/07/12 02:16:39;;;;;;;0.40;0.20;;;17.10;99.90;;;;;;5010673;28;20802;-71
2022/07/12 02:19:05;;;;;;;0.40;0.40;;;17.00;99.90;;;;;;5009575;28;20752;-71
2022/07/12 02:21:31;;;;;;;0.40;0.30;;;17.00;99.90;;;;;;5010526;28;20385;-71
2022/07/12 02:23:56;;;;;;;0.40;0.20;;;16.90;99.90;;;;;;5010615;28;20388;-71
2022/07/12 02:26:22;;;;;;;0.40;0.30;;;16.80;99.90;;;;;;5009650;28;20465;-71
2022/07/12 02:28:48;;;;;;;0.40;0.20;;;16.80;99.90;;;;;;5010307;28;20400;-70
2022/07/12 02:31:13;;;;;;;0.40;0.20;;;16.80;99.90;;;;;;5009771;28;20420;-71
2022/07/12 02:33:39;;;;;;;0.40;0.20;;;16.80;99.90;;;;;;5010487;28;20448;-70
2022/07/12 02:36:05;;;;;;;0.40;0.30;;;16.70;99.90;;;;;;5009693;28;20740;-71
2022/07/12 02:38:31;;;;;;;0.40;0.20;;;16.70;99.90;;;;;;5010418;28;20464;-71
2022/07/12 02:40:56;;;;;;;0.40;0.30;;;16.70;99.90;;;;;;5012072;28;20387;-71
2022/07/12 02:43:27;;;;;;;0.40;0.20;;;16.80;99.90;;;;;;5013031;28;20389;-70
2022/07/12 02:45:56;;;;;;;0.40;0.20;;;16.70;99.90;;;;;;5013968;28;20405;-70
2022/07/12 02:48:22;;;;;;;0.40;0.22;;;16.80;99.90;;;;;;5012968;28;21012;-71
2022/07/12 02:50:48;;;;;;;0.40;0.30;;;16.80;99.90;;;;;;5013723;28;20460;-70
2022/07/12 02:53:14;;;;;;;0.40;0.20;;;17.00;99.90;;;;;;5008629;28;20791;-70
2022/07/12 02:55:40;;;;;;;0.40;0.30;;;16.80;99.90;;;;;;5033337;28;20531;-70
2022/07/12 02:58:06;;;;;;;0.40;0.20;;;16.80;99.90;;;;;;5032580;28;20506;-71
2022/07/12 03:00:32;;;;;;;0.40;0.30;;;16.80;99.90;;;;;;5033308;28;20387;-71
2022/07/12 03:02:58;;;;;;;0.40;0.30;;;16.60;99.90;;;;;;5033222;28;20860;-70
2022/07/12 03:05:24;;;;;;;0.40;0.20;;;16.50;99.90;;;;;;5032222;28;20383;-71
2022/07/12 03:07:50;;;;;;;1.10;1.00;;;16.40;99.90;;;;;;5033121;28;20487;-70
2022/07/12 03:10:18;;;;;;;0.40;0.20;;;16.40;99.90;;;;;;5032433;28;20383;-71
2022/07/12 03:12:43;;;;;;;0.40;0.30;;;16.40;99.90;;;;;;5033010;28;20407;-70
2022/07/12 03:15:09;;;;;;;0.40;0.20;;;16.40;99.90;;;;;;5032330;28;20414;-71
2022/07/12 03:17:35;;;;;;;0.40;0.30;;;16.30;99.90;;;;;;5033020;28;20394;-71
2022/07/12 03:20:02;;;;;;;0.40;0.20;;;16.30;99.90;;;;;;5032897;28;20391;-70
2022/07/12 03:22:28;;;;;;;0.40;0.30;;;16.20;99.90;;;;;;5031797;28;21017;-70
2022/07/12 03:24:53;;;;;;;0.40;0.20;;;16.30;99.90;;;;;;5032956;28;20384;-70
2022/07/12 03:27:19;;;;;;;0.40;0.30;;;16.20;99.90;;;;;;5031640;28;20456;-71
2022/07/12 03:29:44;;;;;;;0.40;0.30;;;16.30;99.90;;;;;;5032860;28;20387;-71
2022/07/12 03:32:10;;;;;;;0.40;0.30;;;16.30;99.90;;;;;;5031612;28;21013;-71
2022/07/12 03:34:36;;;;;;;0.40;0.30;;;16.10;99.90;;;;;;5032792;28;20417;-70
2022/07/12 03:37:03;;;;;;;0.40;0.22;;;16.20;99.90;;;;;;5032562;28;20453;-70
2022/07/12 03:39:29;;;;;;;0.40;0.30;;;16.10;99.90;;;;;;5032157;28;20387;-71
2022/07/12 03:41:54;;;;;;;0.40;0.38;;;16.00;99.90;;;;;;5032263;28;20945;-71
2022/07/12 03:44:20;;;;;;;0.40;0.20;;;16.00;99.90;;;;;;5031647;28;20387;-71
2022/07/12 03:46:47;;;;;;;0.50;0.50;;;16.00;99.90;;;;;;5032650;28;20788;-70
2022/07/12 03:49:13;;;;;;;0.57;0.57;;;16.00;99.90;;;;;;5031511;28;20390;-71
2022/07/12 03:51:39;;;;;;;0.40;0.20;;;16.00;99.90;;;;;;5030858;28;20380;-70
2022/07/12 03:54:07;;;;;;;0.40;0.20;;;16.00;99.90;;;;;;5012723;28;20480;-71
2022/07/12 03:59:17;;;;;;;0.40;0.20;;;15.90;99.90;;;;;;5011503;28;20396;-71
2022/07/12 04:01:43;;;;;;;0.40;0.20;;;15.90;99.90;;;;;;5012512;28;20384;-72
2022/07/12 04:04:09;;;;;;;0.40;0.20;;;15.70;99.90;;;;;;5011860;28;20694;-72
2022/07/12 04:06:34;;;;;;;0.40;0.30;;;15.70;99.90;;;;;;5012288;28;20385;-72
2022/07/12 04:09:00;;;;;;;0.40;0.20;;;15.70;99.90;;;;;;5012300;28;20380;-71
2022/07/12 04:11:26;;;;;;;0.40;0.30;;;15.80;99.90;;;;;;5011546;28;21422;-72
2022/07/12 04:13:52;;;;;;;0.40;0.20;;;15.70;99.90;;;;;;5012046;28;20813;-71
2022/07/12 04:16:18;;;;;;;0.40;0.30;;;15.60;99.90;;;;;;5011504;28;20393;-71
2022/07/12 04:18:43;;;;;;;0.40;0.30;;;15.60;99.90;;;;;;5012211;28;20388;-71
2022/07/12 04:21:09;;;;;;;0.40;0.30;;;15.60;99.90;;;;;;5011882;28;20392;-72
2022/07/12 04:23:34;;;;;;;0.40;0.30;;;15.60;99.90;;;;;;5011509;28;20393;-72
2022/07/12 04:26:00;;;;;;;0.40;0.30;;;15.70;99.90;;;;;;5011702;28;20384;-71
2022/07/12 04:28:26;;;;;;;1.50;0.90;;;15.70;99.90;;;;;;5011083;28;20749;-71
2022/07/12 04:30:51;;;;;;;0.40;0.20;;;15.60;99.90;;;;;;5011963;28;20385;-71
2022/07/12 04:33:17;;;;;;;0.40;0.20;;;15.60;99.90;;;;;;5010921;28;20419;-72
2022/07/12 04:35:42;;;;;;;0.40;0.30;;;15.50;99.90;;;;;;5011613;28;20400;-71
2022/07/12 04:38:08;;;;;;;0.40;0.20;;;15.50;99.90;;;;;;5011651;28;20436;-72
2022/07/12 04:40:34;;;;;;;0.40;0.30;;;15.60;99.90;;;;;;5011367;28;20398;-71
2022/07/12 04:42:59;;;;;;;0.40;0.20;;;15.60;99.90;;;;;;5011723;28;20741;-71
2022/07/12 04:45:25;;;;;;;0.40;0.20;;;15.60;99.90;;;;;;5010720;28;20381;-71
2022/07/12 04:47:51;;;;;;;0.40;0.20;;;15.50;99.90;;;;;;5011330;28;20392;-71
2022/07/12 04:50:17;;;;;;;0.40;0.20;;;15.50;99.90;;;;;;5010982;28;20806;-71
2022/07/12 04:52:42;;;;;;;0.90;0.90;;;15.50;99.90;;;;;;5020475;28;20410;-71
2022/07/12 04:55:08;;;;;;;0.40;0.20;;;15.50;99.90;;;;;;5030977;28;20482;-70
2022/07/12 04:57:35;;;;;;;0.40;0.30;;;15.60;99.90;;;;;;5030238;28;20494;-70
2022/07/12 05:00:00;;;;;;;0.40;0.20;;;15.70;99.90;;;;;;5029708;28;20409;-70
2022/07/12 05:02:26;;;;;;;0.40;0.20;;;15.60;99.90;;;;;;5018481;28;20387;-71
2022/07/12 05:04:52;;;;;;;0.40;0.30;;;15.80;99.90;;;;;;5030591;28;20472;-71
2022/07/12 05:07:18;;;;;;;0.50;0.40;;;15.80;99.90;;;;;;5030206;28;20377;-70
2022/07/12 05:09:43;;;;;;;0.40;0.20;;;15.90;99.90;;;;;;5030855;28;20383;-71
2022/07/12 05:12:09;;;;;;;0.40;0.20;;;15.90;99.90;;;;;;5031047;28;20457;-70
2022/07/12 05:14:35;;;;;;;0.40;0.20;;;16.00;99.90;;;;;;5029957;28;20391;-70
2022/07/12 05:17:00;;;;;;;0.40;0.20;;;16.10;99.90;;;;;;5031137;28;20418;-70
2022/07/12 05:19:26;;;;;;;0.40;0.20;;;16.20;99.90;;;;;;5029866;28;20386;-70
2022/07/12 05:21:52;;;;;;;0.40;0.30;;;16.20;99.90;;;;;;5030924;28;20375;-71
2022/07/12 05:24:17;;;;;;;0.40;0.20;;;16.20;99.90;;;;;;5030279;28;20693;-71
2022/07/12 05:26:43;;;;;;;0.40;0.25;;;16.30;99.90;;;;;;5030916;28;20399;-71
2022/07/12 05:29:09;;;;;;;0.40;0.30;;;16.40;99.90;;;;;;5030956;28;20395;-70
2022/07/12 05:31:35;;;;;;;0.90;0.70;;;16.50;99.90;;;;;;5029783;28;20406;-71
2022/07/12 05:34:01;;;;;;;0.40;0.20;;;16.50;99.90;;;;;;5030503;28;20839;-71
2022/07/12 05:36:27;;;;;;;0.40;0.30;;;16.50;99.90;;;;;;5029848;28;20740;-71
2022/07/12 05:38:53;;;;;;;1.27;1.27;;;16.60;99.90;;;;;;5030514;28;20772;-70
2022/07/12 05:41:18;;;;;;;0.40;0.20;;;16.70;99.90;;;;;;5029850;28;20821;-71
2022/07/12 05:43:44;;;;;;;0.40;0.30;;;16.70;99.90;;;;;;5030619;28;20413;-71
2022/07/12 05:46:10;;;;;;;0.40;0.30;;;16.90;99.90;;;;;;5030337;28;20432;-71
2022/07/12 05:48:36;;;;;;;0.40;0.30;;;16.90;99.90;;;;;;5030042;28;20375;-71
2022/07/12 05:53:47;;;;;;;0.40;0.30;;;17.20;99.90;;;;;;5012220;28;20923;-71
2022/07/12 05:56:13;;;;;;;0.40;0.30;;;17.20;99.90;;;;;;5010978;28;20408;-71
2022/07/12 05:58:39;;;;;;;0.40;0.20;;;17.30;99.90;;;;;;5012349;28;20440;-71
2022/07/12 06:01:05;;;;;;;0.40;0.20;;;17.40;99.90;;;;;;5018732;28;20441;-71
2022/07/12 06:03:31;;;;;;;0.40;0.20;;;17.40;99.90;;;;;;5017174;28;20395;-71
2022/07/12 06:05:57;;;;;;;0.40;0.30;;;17.60;99.90;;;;;;5019238;28;20396;-71
2022/07/12 06:08:23;;;;;;;0.40;0.20;;;17.60;99.90;;;;;;5011129;28;20393;-72
2022/07/12 06:10:48;;;;;;;0.40;0.30;;;17.60;99.90;;;;;;5020684;28;20814;-71
2022/07/12 06:13:14;;;;;;;0.40;0.30;;;17.70;99.90;;;;;;5026500;28;20426;-72
2022/07/12 06:15:40;;;;;;;0.40;0.20;;;17.70;99.90;;;;;;5022803;28;20885;-71
2022/07/12 06:18:06;;;;;;;0.40;0.20;;;17.90;99.90;;;;;;5014390;28;20431;-71
2022/07/12 06:20:32;;;;;;;0.40;0.20;;;18.20;99.90;;;;;;5014208;28;20968;-71
2022/07/12 06:22:58;;;;;;;0.40;0.20;;;18.30;99.90;;;;;;5014052;28;20476;-71
2022/07/12 06:25:24;;;;;;;0.40;0.30;;;18.30;99.90;;;;;;5013426;28;20435;-71
2022/07/12 06:27:50;;;;;;;0.40;0.20;;;18.40;99.90;;;;;;5014253;28;20937;-71
2022/07/12 06:30:20;;;;;;;0.40;0.20;;;18.50;99.90;;;;;;5013567;28;20900;-72
2022/07/12 06:32:46;;;;;;;0.40;0.20;;;18.70;99.90;;;;;;5013912;28;20405;-71
2022/07/12 06:35:13;;;;;;;0.40;0.20;;;18.70;99.90;;;;;;5014051;28;20380;-71
2022/07/12 06:37:38;;;;;;;0.40;0.20;;;18.80;99.90;;;;;;5013256;28;20400;-71
2022/07/12 06:40:05;;;;;;;0.40;0.30;;;18.80;99.90;;;;;;5013908;28;20388;-71
2022/07/12 06:42:31;;;;;;;0.40;0.30;;;18.80;99.90;;;;;;5013110;28;20446;-72
2022/07/12 06:44:56;;;;;;;0.60;0.60;;;18.90;99.90;;;;;;5013847;28;20468;-71
2022/07/12 06:47:22;;;;;;;0.40;0.20;;;18.90;99.90;;;;;;5013313;28;20381;-71
2022/07/12 06:49:48;;;;;;;0.40;0.20;;;18.90;99.90;;;;;;5013734;28;20381;-71
2022/07/12 06:52:14;;;;;;;0.40;0.30;;;18.90;99.90;;;;;;5013784;28;20420;-72
2022/07/12 06:54:40;;;;;;;0.40;0.30;;;19.00;99.90;;;;;;5012779;28;20805;-71
2022/07/12 06:57:06;;;;;;;0.40;0.30;;;19.00;99.90;;;;;;5013472;28;20403;-72
2022/07/12 06:59:32;;;;;;;0.40;0.30;;;19.20;99.90;;;;;;5012687;28;20476;-71
2022/07/12 07:01:58;;;;;;;0.40;0.40;;;19.20;99.90;;;;;;5013583;28;20470;-71
2022/07/12 07:04:25;;;;;;;1.20;0.90;;;19.10;99.90;;;;;;5012749;28;20837;-72
2022/07/12 07:06:51;;;;;;;0.40;0.30;;;19.20;99.90;;;;;;5013531;28;20472;-73
2022/07/12 07:09:17;;;;;;;0.40;0.38;;;19.40;99.90;;;;;;5013093;28;20412;-71
2022/07/12 07:11:43;;;;;;;0.50;0.50;;;19.40;99.90;;;;;;5012792;28;20392;-72
2022/07/12 07:14:09;;;;;;;0.40;0.30;;;19.50;99.90;;;;;;5013322;28;20417;-71
2022/07/12 07:16:34;;;;;;;0.40;0.20;;;19.50;99.90;;;;;;5012420;28;20868;-71
2022/07/12 07:19:00;;;;;;;0.40;0.30;;;19.50;99.90;;;;;;5013302;28;20489;-71
2022/07/12 07:21:26;;;;;;;0.40;0.20;;;19.60;99.90;;;;;;5012612;28;20929;-72
2022/07/12 07:23:52;;;;;;;0.77;0.77;;;19.60;99.90;;;;;;5013277;28;20381;-72
2022/07/12 07:26:19;;;;;;;0.40;0.30;;;19.80;99.90;;;;;;5012483;28;20730;-72
2022/07/12 07:31:29;;;;;;;0.40;0.30;;;19.70;99.90;;;;;;5012214;28;20428;-73
2022/07/12 07:33:55;;;;;;;0.40;0.20;;;19.90;99.90;;;;;;5012948;28;20403;-73
2022/07/12 07:36:20;;;;;;;0.90;0.80;;;19.80;99.90;;;;;;5012198;28;20801;-73
2022/07/12 07:38:46;;;;;;;0.40;0.20;;;20.00;99.90;;;;;;5012571;28;20416;-72
2022/07/12 07:41:12;;;;;;;0.40;0.30;;;20.10;99.90;;;;;;5012838;28;20912;-71
2022/07/12 07:43:37;;;;;;;0.40;0.30;;;20.00;99.90;;;;;;5011954;28;20479;-72
2022/07/12 07:46:03;;;;;;;0.40;0.30;;;20.10;99.90;;;;;;5012743;28;20850;-72
2022/07/12 07:48:29;;;;;;;0.40;0.30;;;20.20;99.90;;;;;;5012264;28;20439;-72
2022/07/12 07:50:55;;;;;;;0.40;0.30;;;20.10;99.90;;;;;;5012817;28;20761;-72
2022/07/12 07:53:21;;;;;;;0.40;0.20;;;20.00;99.90;;;;;;5026782;28;20406;-75
2022/07/12 07:55:46;;;;;;;0.60;0.50;;;20.10;99.90;;;;;;5032020;28;20915;-72
2022/07/12 07:58:14;;;;;;;0.40;0.40;;;20.30;99.90;;;;;;5032386;28;20890;-72
2022/07/12 08:00:40;;;;;;;0.40;0.30;;;20.30;99.90;;;;;;5031308;28;20375;-71
2022/07/12 08:03:06;;;;;;;0.40;0.30;;;20.50;99.90;;;;;;5032199;28;20387;-72
2022/07/12 08:05:32;;;;;;;0.40;0.30;;;20.40;99.90;;;;;;5031367;28;20783;-72
2022/07/12 08:07:57;;;;;;;0.40;0.20;;;20.50;99.90;;;;;;5032026;28;20410;-71
2022/07/12 08:10:24;;;;;;;0.40;0.20;;;20.50;99.90;;;;;;5031385;28;20482;-73
2022/07/12 08:12:50;;;;;;;0.40;0.30;;;20.60;99.90;;;;;;5031844;28;20410;-72
2022/07/12 08:15:16;;;;;;;0.90;0.80;;;20.80;99.90;;;;;;5031818;28;20383;-71
2022/07/12 08:17:41;;;;;;;0.90;0.70;;;20.80;99.90;;;;;;5031082;28;20386;-72
2022/07/12 08:20:08;;;;;;;0.40;0.20;;;20.90;99.90;;;;;;5031714;28;20387;-71
2022/07/12 08:22:33;;;;;;;0.40;0.30;;;21.00;99.90;;;;;;5030705;28;20398;-72
2022/07/12 08:24:59;;;;;;;0.60;0.60;;;21.00;99.90;;;;;;5031970;28;20375;-72
2022/07/12 08:27:25;;;;;;;0.50;0.50;;;21.10;99.90;;;;;;5031483;28;20864;-71
2022/07/12 08:29:50;;;;;;;0.40;0.20;;;21.10;99.90;;;;;;5031756;28;20477;-71
2022/07/12 08:32:16;;;;;;;0.60;0.50;;;21.10;99.90;;;;;;5031735;28;20550;-69
2022/07/12 08:34:42;;;;;;;0.80;0.80;;;21.10;99.90;;;;;;5013253;28;21326;-71
2022/07/12 08:37:08;;;;;;;0.40;0.30;;;21.30;99.90;;;;;;5031428;28;20466;-72
2022/07/12 08:39:34;;;;;;;0.40;0.20;;;21.40;99.90;;;;;;5030288;28;20411;-72
2022/07/12 08:41:59;;;;;;;0.60;0.60;;;21.40;99.90;;;;;;5031313;28;20433;-69
2022/07/12 08:44:25;;;;;;;0.40;0.30;;;21.60;99.90;;;;;;5031000;28;20701;-74
2022/07/12 08:46:52;;;;;;;0.40;0.40;;;21.60;99.90;;;;;;5031355;28;20844;-73
2022/07/12 08:49:18;;;;;;;1.10;0.60;;;21.40;99.90;;;;;;5013901;28;20806;-73
2022/07/12 08:51:44;;;;;;;0.40;0.20;;;21.50;99.90;;;;;;5028997;28;20419;-69
2022/07/12 08:54:18;;;;;;;0.40;0.20;;;21.70;99.90;;;;;;5011612;28;20413;-71
2022/07/12 08:56:44;;;;;;;0.40;0.30;;;21.80;99.90;;;;;;5010808;28;21253;-72
2022/07/12 08:59:16;;;;;;;0.40;0.20;;;21.80;99.90;;;;;;5010311;28;20412;-70
2022/07/12 09:01:49;;;;;;;1.70;0.80;;;21.70;99.90;;;;;;5009734;28;20389;-73
2022/07/12 09:04:27;;;;;;;0.40;0.20;;;21.80;99.90;;;;;;5010913;28;20487;-73
2022/07/12 09:06:53;;;;;;;0.50;0.50;;;21.80;99.90;;;;;;5010390;28;20460;-72
2022/07/12 09:09:28;;;;;;;0.40;0.20;;;22.00;99.90;;;;;;5010595;28;20391;-72
2022/07/12 09:11:54;;;;;;;0.40;0.30;;;22.10;99.40;;;;;;5010301;28;20392;-72
2022/07/12 09:14:20;;;;;;;0.40;0.30;;;22.30;98.70;;;;;;5010542;28;20393;-71
2022/07/12 09:17:09;;;;;;;0.40;0.30;;;22.50;98.70;;;;;;5009524;28;20380;-72
2022/07/12 09:19:37;;;;;;;0.40;0.30;;;22.40;98.30;;;;;;4992100;28;20389;-72
2022/07/12 09:22:03;;;;;;;0.47;0.32;;;22.40;98.10;;;;;;5010022;28;20892;-73
2022/07/12 09:24:29;;;;;;;0.40;0.30;;;22.40;98.30;;;;;;5009555;28;20381;-76
2022/07/12 09:27:05;;;;;;;0.40;0.30;;;22.40;99.70;;;;;;4992569;28;20757;-73
2022/07/12 09:29:32;;;;;;;0.40;0.20;;;22.50;99.60;;;;;;5009573;28;20785;-74
2022/07/12 09:37:42;;;;;;;0.40;0.20;;;22.80;98.30;;;;;;5009480;28;20380;-72
2022/07/12 09:40:09;;;;;;;0.40;0.30;;;22.90;97.20;;;;;;5010450;28;20377;-72
2022/07/12 09:42:35;;;;;;;0.40;0.20;;;23.00;98.40;;;;;;5009294;28;20496;-72
2022/07/12 09:45:01;;;;;;;0.40;0.20;;;23.00;98.10;;;;;;5010162;28;20392;-72
2022/07/12 09:47:27;;;;;;;0.40;0.20;;;23.10;97.60;;;;;;5009641;28;20471;-73
2022/07/12 09:49:56;;;;;;;0.40;0.40;;;23.20;97.50;;;;;;5009857;28;20412;-73
2022/07/12 09:52:28;;;;;;;0.40;0.30;;;23.30;96.20;;;;;;5019628;28;20407;-73
2022/07/12 09:54:55;;;;;;;0.40;0.20;;;23.40;97.50;;;;;;4998706;28;20456;-73
2022/07/12 09:57:31;;;;;;;0.40;0.30;;;23.50;97.20;;;;;;4880918;28;4364840;-69
2022/07/12 10:00:03;;;;;;;0.40;0.30;;;23.50;95.00;;;;;;5034521;28;20391;-74
2022/07/12 10:02:29;;;;;;;0.40;0.30;;;23.60;96.20;;;;;;5034081;28;20383;-76
2022/07/12 10:04:55;;;;;;;0.40;0.20;;;23.80;95.10;;;;;;5034028;28;20463;-72
2022/07/12 10:07:21;;;;;;;0.40;0.30;;;23.60;94.80;;;;;;5033991;28;20387;-72
2022/07/12 10:09:51;;;;;;;0.40;0.30;;;23.60;95.70;;;;;;5032729;28;20382;-74
2022/07/12 10:12:19;;;;;;;0.40;0.20;;;23.60;94.80;;;;;;5032054;28;20799;-75
2022/07/12 10:14:46;;;;;;;0.40;0.30;;;23.80;95.00;;;;;;5023568;28;20402;-73
2022/07/12 10:17:13;;;;;;;0.40;0.20;;;23.80;94.80;;;;;;5032473;28;20466;-71
2022/07/12 10:19:39;;;;;;;0.40;0.30;;;23.80;94.50;;;;;;5014568;28;20383;-70
2022/07/12 10:22:18;;;;;;;0.40;0.30;;;23.70;94.20;;;;;;5033624;28;20391;-73
2022/07/12 10:24:51;;;;;;;0.40;0.25;;;23.70;94.20;;;;;;5033594;28;20391;-70
2022/07/12 10:27:17;;;;;;;0.50;0.50;;;23.90;93.70;;;;;;5033053;28;20875;-70
2022/07/12 10:29:48;;;;;;;0.40;0.20;;;24.10;93.30;;;;;;5033178;28;20455;-68
2022/07/12 10:32:27;;;;;;;0.40;0.40;;;24.30;93.00;;;;;;5033684;28;20407;-72
2022/07/12 10:35:00;;;;;;;0.40;0.30;;;24.30;92.80;;;;;;5033080;28;20624;-72
2022/07/12 10:37:26;;;;;;;0.50;0.40;;;24.50;92.90;;;;;;5033814;28;20391;-72
2022/07/12 10:40:22;;;;;;;0.60;0.60;;;24.50;92.20;;;;;;5033255;28;21047;-73
2022/07/12 10:43:03;;;;;;;0.40;0.20;;;24.50;92.10;;;;;;4995751;28;20450;-73
2022/07/12 10:45:48;;;;;;;0.40;0.30;;;24.70;93.60;;;;;;5013718;28;20483;-73
2022/07/12 10:48:14;;;;;;;0.90;0.90;;;25.10;92.50;;;;;;5013804;28;20389;-73
2022/07/12 10:50:45;;;;;;;0.40;0.30;;;25.00;91.50;;;;;;5012821;28;20447;-69
2022/07/12 10:53:37;;;;;;;0.40;0.20;;;24.60;91.20;;;;;;5012965;28;20491;-72
2022/07/12 10:56:15;;;;;;;0.63;0.57;;;24.70;91.20;;;;;;5013774;28;20737;-73
2022/07/12 10:58:54;;;;;;;0.63;0.63;;;25.00;92.50;;;;;;5012775;28;20431;-74
2022/07/12 11:01:20;;;;;;;0.57;0.57;;;25.10;90.90;;;;;;5026294;28;20407;-71
2022/07/12 11:03:50;;;;;;;0.90;0.90;;;25.50;90.90;;;;;;5019874;28;20407;-73
2022/07/12 11:06:22;;;;;;;0.40;0.30;;;25.40;89.30;;;;;;5027731;28;20420;-73
2022/07/12 11:08:53;;;;;;;0.40;0.30;;;25.30;88.60;;;;;;5013154;28;20881;-73
2022/07/12 11:11:21;;;;;;;0.40;0.30;;;25.60;90.60;;;;;;5022768;28;20529;-73
2022/07/12 11:13:47;;;;;;;0.40;0.30;;;25.90;87.40;;;;;;5032127;28;20399;-75
2022/07/12 11:16:12;;;;;;;0.40;0.30;;;26.10;89.70;;;;;;5033058;28;20429;-75
2022/07/12 11:18:38;;;;;;;0.40;0.30;;;25.70;84.00;;;;;;5032238;28;20491;-75
2022/07/12 11:21:05;;;;;;;0.40;0.30;;;25.80;88.20;;;;;;5028657;28;20387;-74
2022/07/12 11:23:31;;;;;;;0.40;0.30;;;26.20;84.30;;;;;;5027244;28;20446;-74
2022/07/12 11:25:59;;;;;;;0.40;0.30;;;26.50;81.60;;;;;;4994552;28;20396;-75
2022/07/12 11:28:26;;;;;;;0.40;0.30;;;26.50;83.30;;;;;;5013670;28;20409;-73
2022/07/12 11:30:52;;;;;;;0.40;0.20;;;26.40;79.20;;;;;;5004139;28;20401;-74
2022/07/12 11:33:24;;;;;;;0.40;0.30;;;26.50;78.70;;;;;;5018967;28;20409;-75
2022/07/12 11:35:51;;;;;;;0.40;0.30;;;26.70;82.20;;;;;;5019270;28;20388;-74
2022/07/12 11:38:25;;;;;;;0.40;0.30;;;27.20;76.60;;;;;;5004951;28;20401;-75
2022/07/12 11:41:02;;;;;;;0.40;0.30;;;27.10;76.90;;;;;;5021172;28;20391;-78
2022/07/12 11:43:28;;;;;;;0.40;0.20;;;26.80;78.40;;;;;;5023307;28;20401;-78
2022/07/12 11:45:55;;;;;;;1.30;0.70;;;27.20;74.80;;;;;;5020597;28;20593;-73
2022/07/12 11:48:22;;;;;;;0.80;0.60;;;28.20;71.50;;;;;;5020286;28;20407;-75
2022/07/12 11:50:50;;;;;;;0.40;0.20;;;28.50;74.70;;;;;;5020149;28;20386;-71
2022/07/12 11:53:21;;;;;;;0.40;0.30;;;28.60;68.00;;;;;;5023058;28;20494;-74
2022/07/12 11:55:49;;;;;;;0.40;0.20;;;29.40;66.90;;;;;;5019303;28;20409;-75
2022/07/12 11:58:16;;;;;;;0.40;0.20;;;29.30;65.70;;;;;;5014481;28;20499;-74
2022/07/12 12:00:43;;;;;;;0.40;0.20;;;29.20;67.90;;;;;;5030107;28;20779;-75
2022/07/12 12:03:09;;;;;;;0.40;0.20;;;29.40;65.00;;;;;;5024022;28;20873;-74
2022/07/12 12:05:36;;;;;;;0.40;0.20;;;29.80;65.30;;;;;;5029095;28;20402;-76
2022/07/12 12:08:06;;;;;;;0.40;0.20;;;29.60;64.80;;;;;;5031614;28;20391;-73
2022/07/12 12:10:33;;;;;;;0.40;0.20;;;28.70;62.30;;;;;;5024167;28;20396;-74
2022/07/12 12:13:01;;;;;;;0.40;0.20;;;30.30;64.80;;;;;;5010541;28;20401;-74
2022/07/12 12:15:36;;;;;;;0.40;0.20;;;31.10;62.50;;;;;;5012238;28;20388;-74
2022/07/12 12:18:06;;;;;;;0.40;0.20;;;29.80;59.10;;;;;;5027409;28;20387;-75
2022/07/12 12:20:39;;;;;;;0.40;0.20;;;29.30;60.40;;;;;;5032182;28;20387;-74
2022/07/12 12:23:06;;;;;;;0.40;0.20;;;30.60;63.60;;;;;;5031680;28;20502;-74
2022/07/12 12:25:33;;;;;;;0.40;0.20;;;30.80;60.50;;;;;;5014059;28;20756;-73
2022/07/12 12:28:03;;;;;;;0.40;0.20;;;31.70;61.90;;;;;;5030598;28;21109;-74
2022/07/12 12:30:32;;;;;;;0.40;0.20;;;31.50;57.10;;;;;;5031475;28;20387;-74
2022/07/12 12:32:59;;;;;;;0.40;0.20;;;31.00;57.00;;;;;;5013109;28;21036;-75
2022/07/12 12:35:31;;;;;;;0.40;0.20;;;31.30;58.60;;;;;;5031605;28;20474;-75
2022/07/12 12:37:59;;;;;;;0.40;0.20;;;31.70;58.40;;;;;;5030692;28;20379;-74
2022/07/12 12:40:27;;;;;;;0.40;0.20;;;31.10;56.60;;;;;;5031479;28;20395;-73
2022/07/12 12:43:05;;;;;;;0.40;0.20;;;31.00;56.90;;;;;;5013092;28;20411;-75
2022/07/12 12:45:31;;;;;;;0.40;0.20;;;30.80;60.60;;;;;;5031642;28;20394;-74
2022/07/12 12:48:02;;;;;;;0.40;0.20;;;31.10;59.10;;;;;;5030664;28;20752;-74
2022/07/12 12:50:42;;;;;;;0.40;0.20;;;30.40;57.40;;;;;;5031090;28;20372;-75
2022/07/12 12:53:09;;;;;;;0.40;0.30;;;30.10;58.00;;;;;;5031331;28;20408;-74
2022/07/12 12:55:35;;;;;;;0.40;0.20;;;31.00;60.10;;;;;;5031232;28;20383;-74
2022/07/12 12:58:01;;;;;;;0.40;0.20;;;30.70;58.80;;;;;;5029940;28;20403;-74
2022/07/12 13:00:29;;;;;;;0.40;0.20;;;31.40;56.80;;;;;;5031065;28;20423;-74
2022/07/12 13:02:58;;;;;;;0.40;0.20;;;31.30;58.70;;;;;;5030208;28;20461;-74
2022/07/12 13:05:25;;;;;;;0.40;0.20;;;30.50;56.10;;;;;;5031065;28;20383;-74